Terminal Aerodrome Forecast
Issued by NWS

Home | Current Version | Previous Version | Graphics & Text | Print | Product List | Glossary On
Versions: 1 2 3 4 5 6 7 8 9 10 11 12 13 14 15 16
166
FTUS43 KBIS 170537
TAFMOT
TAF
KMOT 170537Z 1706/1806 21013KT P6SM SKC
     FM171500 24016KT P6SM SKC WS020/30040KT
     FM171800 25018G25KT P6SM SKC
     FM180100 24015KT P6SM SCT250=

USA.gov is the U.S. government's official web portal to all federal, state and local government web resources and services.